Time;durP1;ratioP1;P1;durP2;ratioP2;P2;SDS_P1;SDS_P2;PMS_P1;PMS_P2;Temp;Humidity;BMP_temperature;BMP_pressure;BME280_temperature;BME280_humidity;BME280_pressure;Samples;Min_cycle;Max_cycle;Signal;HPM_P1;HPM_P2
2024/03/11 00:00:43;;;;;;;2.17;2.00;;;11.40;35.10;;;;;;10383144;28;20229;-72
2024/03/11 00:05:48;;;;;;;2.07;1.97;;;11.20;34.30;;;;;;10384591;28;20245;-72
2024/03/11 00:10:55;;;;;;;2.00;1.90;;;11.20;34.70;;;;;;10384133;28;20218;-72
2024/03/11 00:16:00;;;;;;;1.77;1.67;;;11.10;34.30;;;;;;10386101;28;20218;-72
2024/03/11 00:21:05;;;;;;;1.50;1.40;;;11.10;34.40;;;;;;10383029;28;20253;-71
2024/03/11 00:26:08;;;;;;;1.50;1.40;;;11.00;35.20;;;;;;10386898;28;20773;-72
2024/03/11 00:31:12;;;;;;;1.17;1.13;;;11.00;34.40;;;;;;10390540;28;20940;-72
2024/03/11 00:36:16;;;;;;;1.30;1.20;;;11.00;34.10;;;;;;10386634;28;20236;-72
2024/03/11 00:41:20;;;;;;;1.03;0.93;;;11.00;34.40;;;;;;10389088;28;20308;-72
2024/03/11 00:46:24;;;;;;;1.03;1.03;;;10.90;34.10;;;;;;10394318;28;20230;-72
2024/03/11 00:51:29;;;;;;;1.53;1.10;;;10.80;34.10;;;;;;10392947;28;20225;-72
2024/03/11 00:56:33;;;;;;;0.90;0.90;;;10.70;34.40;;;;;;10395362;28;20240;-72
2024/03/11 01:01:36;;;;;;;0.90;0.90;;;10.70;34.00;;;;;;10396680;28;20233;-72
2024/03/11 01:06:40;;;;;;;0.90;0.90;;;10.70;34.20;;;;;;10396101;28;20745;-72
2024/03/11 01:11:57;;;;;;;0.83;0.83;;;10.60;34.30;;;;;;10390016;28;20252;-72
2024/03/11 01:17:01;;;;;;;0.90;0.90;;;10.60;34.20;;;;;;10388343;28;20230;-72
2024/03/11 01:22:06;;;;;;;0.90;0.90;;;10.50;34.00;;;;;;10392950;28;21100;-72
2024/03/11 01:27:11;;;;;;;1.40;1.30;;;10.30;34.10;;;;;;10391870;28;20233;-72
2024/03/11 01:32:14;;;;;;;1.00;1.00;;;10.40;34.30;;;;;;10396785;28;20284;-72
2024/03/11 01:37:22;;;;;;;1.10;1.10;;;10.30;34.10;;;;;;10389482;28;20242;-72
2024/03/11 01:42:25;;;;;;;1.07;1.00;;;10.30;34.40;;;;;;10391815;28;20288;-72
2024/03/11 01:47:28;;;;;;;1.40;1.10;;;10.40;34.00;;;;;;10394477;28;20261;-72
2024/03/11 01:52:36;;;;;;;1.00;1.00;;;10.50;33.90;;;;;;10389929;28;20229;-72
2024/03/11 01:57:40;;;;;;;0.97;0.97;;;10.50;33.90;;;;;;10393515;28;20585;-72
2024/03/11 02:02:44;;;;;;;1.10;1.10;;;10.50;33.40;;;;;;10388271;28;20230;-72
2024/03/11 02:07:52;;;;;;;1.10;1.10;;;10.50;33.30;;;;;;10392352;28;20325;-72
2024/03/11 02:12:58;;;;;;;5.93;2.60;;;10.50;33.50;;;;;;10392500;28;20245;-72
2024/03/11 02:18:05;;;;;;;1.50;1.40;;;10.50;33.10;;;;;;10392693;28;20593;-71
2024/03/11 02:23:10;;;;;;;1.20;1.10;;;10.40;32.70;;;;;;10392110;28;20642;-72
2024/03/11 02:28:14;;;;;;;1.50;1.40;;;10.10;32.80;;;;;;10392435;28;20241;-72
2024/03/11 02:33:17;;;;;;;1.17;1.17;;;9.80;33.90;;;;;;10392341;28;20763;-72
2024/03/11 02:38:21;;;;;;;1.30;1.20;;;9.50;34.30;;;;;;10393664;28;20329;-72
2024/03/11 02:43:26;;;;;;;1.80;1.70;;;9.40;34.50;;;;;;10393492;28;20233;-72
2024/03/11 02:48:30;;;;;;;1.50;1.40;;;9.30;34.40;;;;;;10392795;28;20309;-72
2024/03/11 02:53:34;;;;;;;1.57;1.47;;;9.40;34.30;;;;;;10386640;28;20688;-72
2024/03/11 02:58:38;;;;;;;2.20;1.77;;;9.40;34.30;;;;;;10389830;28;20233;-72
2024/03/11 03:03:41;;;;;;;1.70;1.60;;;9.40;34.30;;;;;;10385022;28;20229;-72
2024/03/11 03:08:46;;;;;;;1.60;1.50;;;9.40;34.10;;;;;;10390195;28;20710;-72
2024/03/11 03:13:50;;;;;;;2.00;1.90;;;9.40;34.10;;;;;;10389612;28;20222;-72
2024/03/11 03:18:55;;;;;;;1.90;1.80;;;9.30;33.90;;;;;;10389681;28;20238;-71
2024/03/11 03:23:59;;;;;;;3.63;3.30;;;9.10;34.10;;;;;;10387811;28;20310;-72
2024/03/11 03:29:02;;;;;;;4.03;2.93;;;9.00;34.10;;;;;;10389649;28;20280;-71
2024/03/11 03:34:06;;;;;;;2.40;1.97;;;8.90;33.90;;;;;;10390624;28;20230;-72
2024/03/11 03:39:10;;;;;;;1.83;1.63;;;8.90;33.90;;;;;;10387653;28;21008;-72
2024/03/11 03:44:14;;;;;;;2.13;1.63;;;8.90;33.90;;;;;;10389607;28;20719;-72
2024/03/11 03:49:17;;;;;;;1.60;1.50;;;8.80;33.80;;;;;;10384604;28;20230;-72
2024/03/11 03:54:21;;;;;;;1.67;1.57;;;8.70;33.80;;;;;;10387126;28;20226;-72
2024/03/11 03:59:26;;;;;;;1.60;1.50;;;8.50;34.10;;;;;;10391325;28;20225;-71
2024/03/11 04:04:29;;;;;;;5.83;4.37;;;8.50;34.00;;;;;;10386129;28;20229;-72
2024/03/11 04:09:34;;;;;;;3.10;2.30;;;8.40;34.10;;;;;;10386983;28;20226;-72
2024/03/11 04:14:38;;;;;;;4.27;3.00;;;8.30;34.40;;;;;;10381430;28;20309;-72
2024/03/11 04:19:42;;;;;;;5.63;3.10;;;8.30;34.30;;;;;;10383224;28;20237;-72
2024/03/11 04:24:46;;;;;;;2.37;2.07;;;8.30;34.20;;;;;;10383813;28;20735;-72
2024/03/11 04:29:50;;;;;;;2.13;1.93;;;8.20;34.40;;;;;;10381745;28;20222;-72
2024/03/11 04:34:53;;;;;;;2.73;2.53;;;8.20;34.20;;;;;;10383283;28;20309;-72
2024/03/11 04:39:58;;;;;;;3.30;2.13;;;8.00;34.20;;;;;;10381438;28;20321;-72
2024/03/11 04:45:01;;;;;;;2.80;2.50;;;8.00;34.60;;;;;;10379255;28;20241;-72
2024/03/11 04:50:05;;;;;;;1.70;1.60;;;7.90;34.40;;;;;;10380978;28;20240;-71
2024/03/11 04:55:10;;;;;;;1.70;1.60;;;7.80;34.60;;;;;;10383622;28;20229;-71
2024/03/11 05:00:14;;;;;;;2.60;2.40;;;7.60;34.90;;;;;;10381916;28;20229;-71
2024/03/11 05:05:17;;;;;;;2.93;2.73;;;7.60;34.80;;;;;;10382204;28;20253;-72
2024/03/11 05:10:22;;;;;;;2.90;2.60;;;7.60;34.50;;;;;;10384314;28;20230;-72
2024/03/11 05:15:26;;;;;;;3.23;2.93;;;7.40;34.60;;;;;;10381274;28;20699;-72
2024/03/11 05:20:29;;;;;;;1.77;1.67;;;7.30;34.70;;;;;;10380791;28;20249;-72
2024/03/11 05:25:34;;;;;;;4.33;4.03;;;7.20;34.80;;;;;;10381368;28;20245;-72
2024/03/11 05:30:37;;;;;;;3.80;3.50;;;7.10;35.10;;;;;;10374959;28;20282;-72
2024/03/11 05:35:41;;;;;;;3.33;3.03;;;7.10;35.10;;;;;;10347376;28;20319;-71
2024/03/11 05:40:47;;;;;;;2.53;2.30;;;7.00;35.30;;;;;;10349566;28;20277;-72
2024/03/11 05:45:50;;;;;;;1.60;1.50;;;6.90;35.60;;;;;;10346104;28;20239;-72
2024/03/11 05:51:01;;;;;;;3.87;3.23;;;6.90;35.40;;;;;;10346850;28;20837;-72
2024/03/11 05:56:08;;;;;;;3.73;3.43;;;7.00;35.40;;;;;;10364389;28;20708;-72
2024/03/11 06:01:12;;;;;;;2.70;2.50;;;7.10;35.60;;;;;;10357137;28;20242;-72
2024/03/11 06:06:16;;;;;;;1.83;1.70;;;7.10;35.00;;;;;;10348479;28;20238;-72
2024/03/11 06:11:21;;;;;;;3.17;2.00;;;7.00;34.90;;;;;;10351517;28;20321;-72
2024/03/11 06:16:24;;;;;;;3.30;2.20;;;6.90;35.30;;;;;;10352997;28;20253;-72
2024/03/11 06:21:27;;;;;;;2.07;1.87;;;6.90;36.60;;;;;;10347520;28;20229;-71
2024/03/11 06:26:34;;;;;;;2.60;2.20;;;7.00;37.40;;;;;;10342616;28;20742;-71
2024/03/11 06:31:38;;;;;;;1.67;1.57;;;7.20;37.00;;;;;;10344165;28;21156;-70
2024/03/11 06:36:43;;;;;;;1.70;1.50;;;7.30;36.20;;;;;;10343045;28;20258;-70
2024/03/11 06:41:47;;;;;;;3.63;2.33;;;7.30;36.20;;;;;;10342665;28;20603;-71
2024/03/11 06:46:51;;;;;;;3.40;2.77;;;7.40;36.40;;;;;;10340072;28;20234;-71
2024/03/11 06:51:54;;;;;;;5.30;4.80;;;7.40;36.10;;;;;;10369473;28;20226;-71
2024/03/11 06:57:00;;;;;;;3.47;3.17;;;7.40;36.20;;;;;;10362525;28;20302;-70
2024/03/11 07:02:04;;;;;;;5.63;5.23;;;7.40;36.60;;;;;;10351936;28;20227;-71
2024/03/11 07:07:07;;;;;;;3.47;3.23;;;7.40;36.50;;;;;;10369584;28;20229;-71
2024/03/11 07:12:12;;;;;;;2.73;2.53;;;7.50;36.60;;;;;;10367089;28;20226;-71
2024/03/11 07:17:15;;;;;;;2.93;2.50;;;7.60;37.00;;;;;;10368319;28;20234;-71
2024/03/11 07:22:18;;;;;;;1.90;1.80;;;7.60;36.70;;;;;;10384577;28;20241;-71
2024/03/11 07:27:23;;;;;;;2.70;2.50;;;7.70;37.10;;;;;;10387928;28;20234;-71
2024/03/11 07:32:26;;;;;;;3.20;2.90;;;7.80;37.90;;;;;;10390588;28;20248;-70
2024/03/11 07:37:36;;;;;;;2.50;1.47;;;7.90;37.90;;;;;;10388389;28;20589;-70
2024/03/11 07:42:42;;;;;;;2.10;1.90;;;8.00;38.40;;;;;;10385035;28;20225;-70
2024/03/11 07:47:45;;;;;;;3.37;1.70;;;8.10;39.30;;;;;;10385907;28;20246;-70
2024/03/11 07:52:49;;;;;;;1.90;1.70;;;8.30;38.90;;;;;;10382218;28;20309;-71
2024/03/11 07:57:54;;;;;;;2.10;1.90;;;8.40;39.00;;;;;;10386862;28;20308;-70
2024/03/11 08:02:58;;;;;;;7.30;4.10;;;8.50;39.60;;;;;;10384949;28;20296;-71
2024/03/11 08:08:02;;;;;;;3.07;2.70;;;8.70;39.10;;;;;;10386202;28;20604;-70
2024/03/11 08:13:07;;;;;;;1.40;1.30;;;9.00;39.30;;;;;;10381036;28;20320;-71
2024/03/11 08:18:11;;;;;;;2.27;1.53;;;9.30;40.60;;;;;;10377040;28;20266;-71
2024/03/11 08:23:14;;;;;;;1.50;1.40;;;9.60;39.40;;;;;;10381375;28;20302;-71
2024/03/11 08:28:20;;;;;;;1.20;1.10;;;9.90;39.20;;;;;;10382100;28;20324;-71
2024/03/11 08:33:23;;;;;;;1.50;1.40;;;10.10;38.30;;;;;;10384393;28;20238;-70
2024/03/11 08:38:28;;;;;;;1.90;1.80;;;10.30;38.10;;;;;;10376498;28;20734;-71
2024/03/11 08:43:33;;;;;;;1.30;1.20;;;10.60;38.20;;;;;;10385457;28;20304;-71
2024/03/11 08:48:36;;;;;;;1.40;1.30;;;10.90;38.30;;;;;;10376816;28;20312;-71
2024/03/11 08:53:41;;;;;;;1.67;1.30;;;11.20;37.90;;;;;;10380215;28;20224;-71
2024/03/11 08:58:46;;;;;;;1.27;1.17;;;11.50;37.70;;;;;;10377186;28;20721;-71
2024/03/11 09:03:49;;;;;;;1.70;1.30;;;11.70;37.60;;;;;;10387375;28;20642;-71
2024/03/11 09:08:52;;;;;;;1.67;1.17;;;12.00;37.50;;;;;;10387247;28;20265;-71
2024/03/11 09:13:59;;;;;;;1.07;1.07;;;12.20;37.00;;;;;;10390837;28;20303;-71
2024/03/11 09:19:03;;;;;;;3.03;1.17;;;12.40;37.00;;;;;;10386178;28;20234;-71
2024/03/11 09:24:11;;;;;;;1.10;1.07;;;12.70;37.10;;;;;;10387963;28;20260;-71
2024/03/11 09:29:16;;;;;;;1.60;1.50;;;12.90;36.60;;;;;;10390951;28;20295;-71
2024/03/11 09:34:20;;;;;;;1.00;1.00;;;13.20;36.60;;;;;;10388223;28;20225;-71
2024/03/11 09:39:23;;;;;;;1.43;1.20;;;13.40;36.40;;;;;;10389356;28;20332;-71
2024/03/11 09:44:28;;;;;;;2.73;2.27;;;13.70;35.80;;;;;;10392146;28;20230;-71
2024/03/11 09:49:33;;;;;;;1.00;1.00;;;13.80;35.70;;;;;;10386392;28;20256;-71
2024/03/11 09:54:37;;;;;;;1.07;0.93;;;14.00;35.60;;;;;;10381725;28;20320;-71
2024/03/11 09:59:49;;;;;;;0.93;0.93;;;14.20;35.50;;;;;;10385849;28;20230;-71
2024/03/11 10:04:54;;;;;;;0.80;0.80;;;14.50;35.10;;;;;;10390517;28;20261;-69
2024/03/11 10:09:58;;;;;;;0.77;0.77;;;14.70;34.60;;;;;;10380903;28;20305;-71
2024/03/11 10:15:03;;;;;;;0.70;0.70;;;14.90;34.50;;;;;;10386203;28;20226;-71
2024/03/11 10:20:14;;;;;;;0.80;0.80;;;15.00;33.80;;;;;;10385551;28;20908;-71
2024/03/11 10:25:25;;;;;;;0.73;0.73;;;15.20;34.20;;;;;;10386581;28;20225;-71
2024/03/11 10:30:31;;;;;;;0.83;0.60;;;15.40;32.50;;;;;;10384260;28;20248;-71
2024/03/11 10:35:34;;;;;;;1.00;0.70;;;15.60;32.70;;;;;;10388014;28;20226;-71
2024/03/11 10:40:39;;;;;;;1.10;0.80;;;15.90;33.00;;;;;;10383164;28;20321;-71
2024/03/11 10:45:43;;;;;;;0.70;0.70;;;16.10;33.10;;;;;;10383876;28;20305;-70
2024/03/11 10:50:46;;;;;;;0.60;0.60;;;16.20;32.00;;;;;;10380888;28;20237;-71
2024/03/11 10:55:55;;;;;;;0.80;0.80;;;16.30;31.70;;;;;;10385639;28;20224;-71
2024/03/11 11:01:00;;;;;;;0.80;0.80;;;16.30;30.40;;;;;;10381580;28;20249;-71
2024/03/11 11:06:14;;;;;;;0.70;0.70;;;16.40;30.80;;;;;;10386124;28;20240;-71
2024/03/11 11:11:19;;;;;;;1.10;0.73;;;16.40;30.80;;;;;;10384085;28;20708;-71
2024/03/11 11:16:26;;;;;;;2.10;2.00;;;16.50;31.00;;;;;;10385359;28;20226;-71
2024/03/11 11:21:31;;;;;;;0.90;0.90;;;16.60;30.00;;;;;;10382857;28;20233;-70
2024/03/11 11:26:42;;;;;;;0.60;0.60;;;16.60;30.40;;;;;;10380918;28;20229;-71
2024/03/11 11:32:00;;;;;;;1.70;1.00;;;16.60;28.70;;;;;;10383112;28;20226;-71
2024/03/11 11:37:06;;;;;;;0.87;0.70;;;16.70;29.40;;;;;;10384841;28;20249;-71
2024/03/11 11:42:33;;;;;;;0.80;0.80;;;16.70;29.60;;;;;;10382519;28;20226;-71
2024/03/11 11:47:38;;;;;;;0.50;0.50;;;16.50;28.50;;;;;;10376891;28;20232;-71
2024/03/11 11:52:42;;;;;;;0.70;0.70;;;16.60;29.10;;;;;;10382804;28;20236;-71
2024/03/11 11:57:47;;;;;;;0.80;0.80;;;16.60;29.60;;;;;;10378962;28;20260;-71
2024/03/11 12:02:53;;;;;;;0.90;0.90;;;16.60;29.70;;;;;;10379218;28;20238;-71
2024/03/11 12:07:56;;;;;;;1.20;1.10;;;16.60;29.10;;;;;;10379977;28;22095;-71
2024/03/11 12:13:00;;;;;;;1.00;0.90;;;16.70;29.60;;;;;;10378245;28;20225;-71
2024/03/11 12:18:06;;;;;;;0.70;0.70;;;16.80;29.30;;;;;;10380252;28;20321;-70
2024/03/11 12:23:10;;;;;;;0.73;0.73;;;16.80;28.70;;;;;;10378289;28;20234;-70
2024/03/11 12:28:15;;;;;;;1.00;0.83;;;16.90;28.90;;;;;;10378192;28;20375;-71
2024/03/11 12:33:21;;;;;;;1.07;0.67;;;16.90;28.90;;;;;;10379365;28;20280;-71
2024/03/11 12:38:25;;;;;;;0.97;0.80;;;17.10;28.60;;;;;;10384099;28;20233;-71
2024/03/11 12:43:31;;;;;;;1.20;0.80;;;17.20;28.90;;;;;;10387405;28;20236;-71
2024/03/11 12:48:35;;;;;;;0.70;0.70;;;17.30;28.40;;;;;;10388875;28;20324;-71
2024/03/11 12:53:39;;;;;;;0.80;0.80;;;17.30;27.60;;;;;;10387858;28;20233;-71
2024/03/11 12:58:42;;;;;;;0.60;0.60;;;17.30;27.90;;;;;;10385089;28;20230;-71
2024/03/11 13:03:47;;;;;;;0.90;0.80;;;17.30;27.80;;;;;;10383900;28;20223;-71
2024/03/11 13:08:51;;;;;;;0.93;0.90;;;17.20;27.80;;;;;;10381089;28;20226;-71
2024/03/11 13:13:55;;;;;;;1.10;0.80;;;17.20;27.60;;;;;;10388869;28;20233;-71
2024/03/11 13:19:00;;;;;;;0.93;0.93;;;17.20;28.10;;;;;;10386750;28;20230;-71
2024/03/11 13:24:11;;;;;;;1.10;1.00;;;17.20;28.00;;;;;;10383872;28;20236;-71
2024/03/11 13:29:15;;;;;;;0.60;0.60;;;17.20;28.10;;;;;;10362611;28;20234;-71
2024/03/11 13:34:21;;;;;;;0.70;0.70;;;17.30;27.80;;;;;;10344393;28;20277;-71
2024/03/11 13:39:34;;;;;;;0.80;0.80;;;17.30;27.30;;;;;;10344594;28;21134;-71
2024/03/11 13:44:38;;;;;;;0.60;0.60;;;17.30;27.60;;;;;;10345707;28;20272;-71
2024/03/11 13:49:43;;;;;;;0.93;0.70;;;17.30;27.60;;;;;;10343892;28;20226;-71
2024/03/11 13:54:47;;;;;;;0.70;0.70;;;17.30;27.20;;;;;;10343187;28;20283;-71
2024/03/11 13:59:51;;;;;;;0.60;0.60;;;17.40;27.40;;;;;;10343563;28;20728;-71
2024/03/11 14:04:55;;;;;;;1.37;0.80;;;17.40;27.20;;;;;;10345283;28;20231;-71
2024/03/11 14:09:58;;;;;;;0.70;0.70;;;17.40;26.50;;;;;;10358774;28;20248;-71
2024/03/11 14:15:02;;;;;;;0.80;0.80;;;17.30;26.90;;;;;;10348858;28;20231;-71
2024/03/11 14:20:16;;;;;;;0.60;0.60;;;17.30;26.80;;;;;;10347539;28;20239;-71
2024/03/11 14:25:20;;;;;;;1.37;1.00;;;17.40;26.30;;;;;;10344987;28;20663;-72
2024/03/11 14:30:25;;;;;;;0.80;0.80;;;17.40;26.50;;;;;;10344579;28;20230;-71
2024/03/11 14:35:29;;;;;;;1.40;0.70;;;17.40;26.60;;;;;;10338194;28;20225;-71
2024/03/11 14:40:38;;;;;;;0.80;0.70;;;17.40;26.30;;;;;;10346000;28;20321;-72
2024/03/11 14:45:42;;;;;;;1.13;0.80;;;17.40;26.50;;;;;;10345201;28;20231;-70
2024/03/11 14:50:48;;;;;;;0.60;0.60;;;17.40;27.00;;;;;;10347151;28;20230;-70
2024/03/11 14:55:52;;;;;;;0.77;0.70;;;17.40;26.40;;;;;;10378405;28;20234;-72
2024/03/11 15:00:57;;;;;;;0.70;0.70;;;17.40;26.30;;;;;;10357386;28;20230;-72
2024/03/11 15:06:03;;;;;;;1.93;0.90;;;17.40;26.10;;;;;;10322140;28;20351;-72
2024/03/11 15:11:12;;;;;;;0.70;0.70;;;17.40;25.50;;;;;;10370075;28;20706;-72
2024/03/11 15:16:19;;;;;;;1.00;1.00;;;17.40;25.80;;;;;;10376353;28;20234;-72
2024/03/11 15:21:27;;;;;;;0.73;0.73;;;17.40;25.80;;;;;;10378351;28;20570;-72
2024/03/11 15:26:31;;;;;;;0.70;0.70;;;17.40;25.90;;;;;;10340522;28;20746;-72
2024/03/11 15:31:35;;;;;;;0.70;0.70;;;17.40;25.80;;;;;;10337705;28;20237;-72
2024/03/11 15:36:40;;;;;;;0.83;0.83;;;17.40;25.90;;;;;;10339792;28;20226;-72
2024/03/11 15:41:45;;;;;;;0.80;0.80;;;17.40;25.60;;;;;;10336373;28;20274;-72
2024/03/11 15:46:48;;;;;;;0.73;0.67;;;17.30;26.20;;;;;;10339213;28;20218;-71
2024/03/11 15:51:54;;;;;;;0.60;0.60;;;17.30;25.90;;;;;;10339385;28;20254;-72
2024/03/11 15:56:58;;;;;;;1.50;0.80;;;17.30;25.50;;;;;;10339989;28;20229;-72
2024/03/11 16:02:05;;;;;;;5.63;4.53;;;17.30;25.80;;;;;;10340764;28;20227;-71
2024/03/11 16:07:10;;;;;;;1.40;1.30;;;17.20;26.40;;;;;;10340569;28;20317;-72
2024/03/11 16:12:14;;;;;;;1.10;1.10;;;17.20;25.40;;;;;;10336392;28;20261;-72
2024/03/11 16:17:17;;;;;;;0.80;0.80;;;17.20;25.80;;;;;;10340663;28;20256;-72
2024/03/11 16:22:21;;;;;;;0.73;0.73;;;17.20;25.60;;;;;;10336551;28;20236;-72
2024/03/11 16:27:27;;;;;;;1.13;1.10;;;17.20;25.40;;;;;;10336930;28;20237;-71
2024/03/11 16:32:30;;;;;;;4.40;2.70;;;17.20;25.70;;;;;;10338573;28;20233;-72
2024/03/11 16:37:38;;;;;;;3.63;2.83;;;17.10;25.70;;;;;;10337526;28;20230;-72
2024/03/11 16:42:43;;;;;;;2.17;2.03;;;17.10;25.50;;;;;;10336097;28;20236;-72
2024/03/11 16:47:48;;;;;;;2.40;1.30;;;17.00;26.00;;;;;;10340707;28;20636;-72
2024/03/11 16:52:55;;;;;;;2.83;1.30;;;17.10;26.00;;;;;;10338211;28;20619;-72
2024/03/11 16:57:58;;;;;;;3.10;1.10;;;17.10;26.00;;;;;;10336381;28;20292;-70
2024/03/11 17:03:03;;;;;;;1.87;1.70;;;17.10;27.10;;;;;;10339977;28;20239;-71
2024/03/11 17:08:13;;;;;;;2.27;1.80;;;17.20;26.60;;;;;;10338114;28;20235;-71
2024/03/11 17:13:19;;;;;;;5.80;2.20;;;17.20;26.50;;;;;;10337017;28;20233;-70
2024/03/11 17:18:25;;;;;;;6.03;5.00;;;17.20;26.50;;;;;;10339122;28;20322;-70
2024/03/11 17:23:30;;;;;;;7.57;5.93;;;17.20;26.40;;;;;;10339516;28;20233;-71
2024/03/11 17:28:34;;;;;;;19.30;13.87;;;17.10;26.10;;;;;;10346231;28;21030;-70
2024/03/11 17:33:37;;;;;;;10.10;7.67;;;17.00;26.20;;;;;;10344433;28;20227;-70
2024/03/11 17:38:44;;;;;;;49.33;32.33;;;16.80;26.40;;;;;;10342768;28;20944;-70
2024/03/11 17:43:48;;;;;;;52.13;34.03;;;16.70;26.40;;;;;;10345682;28;20273;-70
2024/03/11 17:48:51;;;;;;;36.33;24.50;;;16.60;26.70;;;;;;10343433;28;20624;-70
2024/03/11 17:53:56;;;;;;;13.87;11.20;;;16.50;26.70;;;;;;10346726;28;20238;-70
2024/03/11 17:58:59;;;;;;;11.30;8.53;;;16.50;26.70;;;;;;10333514;28;20242;-70
2024/03/11 18:04:05;;;;;;;11.57;9.73;;;16.50;26.80;;;;;;10341020;28;20393;-70
2024/03/11 18:09:10;;;;;;;13.73;10.90;;;16.40;26.80;;;;;;10345818;28;20238;-70
2024/03/11 18:14:14;;;;;;;17.53;13.47;;;16.30;26.90;;;;;;10343041;28;20230;-70
2024/03/11 18:19:17;;;;;;;14.43;11.40;;;16.20;26.90;;;;;;10341447;28;20238;-70
2024/03/11 18:24:30;;;;;;;18.10;13.10;;;16.10;26.90;;;;;;10338468;28;20229;-70
2024/03/11 18:29:34;;;;;;;15.50;11.27;;;16.00;27.00;;;;;;10336487;28;20638;-70
2024/03/11 18:34:38;;;;;;;10.63;7.97;;;15.90;27.00;;;;;;10340999;28;20600;-70
2024/03/11 18:39:43;;;;;;;6.87;5.67;;;15.70;27.10;;;;;;10336436;28;20612;-70
2024/03/11 18:44:47;;;;;;;5.83;4.30;;;15.60;27.40;;;;;;10338781;28;20247;-70
2024/03/11 18:49:52;;;;;;;4.10;3.40;;;15.60;27.50;;;;;;10337674;28;20724;-70
2024/03/11 18:54:56;;;;;;;7.00;4.67;;;15.50;27.50;;;;;;10333856;28;20246;-70
2024/03/11 19:00:00;;;;;;;12.73;8.57;;;15.40;27.50;;;;;;10329226;28;20227;-70
2024/03/11 19:05:04;;;;;;;11.87;8.83;;;15.40;27.60;;;;;;10331839;28;20722;-70
2024/03/11 19:10:11;;;;;;;7.87;6.90;;;15.30;27.70;;;;;;10335850;28;20321;-70
2024/03/11 19:15:16;;;;;;;6.67;5.57;;;15.20;27.60;;;;;;10338075;28;20241;-70
2024/03/11 19:20:22;;;;;;;7.30;4.40;;;15.10;27.70;;;;;;10345046;28;20273;-70
2024/03/11 19:25:27;;;;;;;10.23;9.33;;;15.00;27.80;;;;;;10334113;28;20234;-70
2024/03/11 19:30:32;;;;;;;7.43;6.60;;;15.00;28.00;;;;;;10332414;28;20261;-70
2024/03/11 19:35:37;;;;;;;9.30;7.00;;;14.90;27.80;;;;;;10338150;28;20268;-70
2024/03/11 19:40:53;;;;;;;6.53;4.90;;;14.80;27.90;;;;;;10338981;28;20231;-70
2024/03/11 19:46:32;;;;;;;6.00;4.83;;;14.60;28.40;;;;;;10347937;28;20218;-70
2024/03/11 19:52:26;;;;;;;5.57;5.07;;;14.40;28.40;;;;;;10353892;28;20317;-70
2024/03/11 19:58:09;;;;;;;6.73;5.37;;;14.40;28.40;;;;;;10353181;28;20712;-70
2024/03/11 20:03:48;;;;;;;5.73;5.23;;;14.20;28.50;;;;;;10365879;28;20236;-70
2024/03/11 20:09:27;;;;;;;6.40;5.27;;;14.10;28.70;;;;;;10382267;28;20233;-70
2024/03/11 20:14:43;;;;;;;6.63;5.73;;;14.00;28.80;;;;;;10375504;28;20224;-70
2024/03/11 20:20:23;;;;;;;6.30;4.70;;;13.90;29.00;;;;;;10376967;28;20947;-70
2024/03/11 20:26:00;;;;;;;6.00;5.30;;;13.80;29.00;;;;;;10375200;28;20221;-70
2024/03/11 20:31:09;;;;;;;5.67;5.10;;;13.80;29.10;;;;;;10375804;28;20264;-70
2024/03/11 20:36:16;;;;;;;6.93;5.00;;;13.70;28.80;;;;;;10374622;28;20225;-70
2024/03/11 20:41:22;;;;;;;5.63;4.90;;;13.50;28.80;;;;;;10378012;28;20225;-70
2024/03/11 20:46:25;;;;;;;4.90;4.17;;;13.40;29.20;;;;;;10377336;28;21384;-69
2024/03/11 20:51:29;;;;;;;6.43;3.87;;;13.30;29.10;;;;;;10376566;28;20233;-70
2024/03/11 20:56:34;;;;;;;4.90;4.40;;;13.30;29.20;;;;;;10382160;28;20225;-70
2024/03/11 21:01:37;;;;;;;5.70;5.10;;;13.30;29.40;;;;;;10385003;28;20249;-70
2024/03/11 21:06:41;;;;;;;6.47;4.93;;;13.20;29.10;;;;;;10382998;28;20228;-70
2024/03/11 21:11:45;;;;;;;10.00;7.67;;;13.20;29.40;;;;;;10387487;28;20673;-70
2024/03/11 21:16:49;;;;;;;8.83;7.77;;;13.10;29.60;;;;;;10387777;28;20232;-70
2024/03/11 21:22:16;;;;;;;9.50;7.13;;;13.00;29.40;;;;;;10354722;28;20236;-70
2024/03/11 21:27:36;;;;;;;12.17;7.93;;;12.90;30.00;;;;;;10360977;28;20228;-70
2024/03/11 21:32:41;;;;;;;9.83;6.70;;;12.90;30.10;;;;;;10348808;28;20306;-70
2024/03/11 21:37:45;;;;;;;6.57;5.67;;;12.90;29.80;;;;;;10346091;28;20226;-70
2024/03/11 21:42:50;;;;;;;6.03;5.43;;;12.90;29.90;;;;;;10343901;28;20240;-70
2024/03/11 21:47:54;;;;;;;5.30;4.70;;;12.80;30.20;;;;;;10339378;28;20227;-70
2024/03/11 21:52:58;;;;;;;5.87;4.90;;;12.70;30.10;;;;;;10341474;28;20230;-70
2024/03/11 21:58:03;;;;;;;5.53;5.03;;;12.70;30.10;;;;;;10338308;28;20721;-70
2024/03/11 22:03:12;;;;;;;5.93;5.17;;;12.70;30.10;;;;;;10350612;28;20241;-70
2024/03/11 22:08:15;;;;;;;5.77;5.13;;;12.60;30.00;;;;;;10340544;28;20320;-70
2024/03/11 22:13:20;;;;;;;6.47;5.10;;;12.40;30.00;;;;;;10338793;28;20893;-70
2024/03/11 22:18:23;;;;;;;5.40;4.90;;;12.30;30.50;;;;;;10354535;28;20257;-70
2024/03/11 22:23:27;;;;;;;6.13;5.63;;;12.40;30.40;;;;;;10338076;28;20609;-70
2024/03/11 22:28:32;;;;;;;5.30;4.67;;;12.40;30.40;;;;;;10334585;28;20324;-70
2024/03/11 22:33:35;;;;;;;4.83;4.33;;;12.50;30.60;;;;;;10340755;28;20714;-70
2024/03/11 22:38:39;;;;;;;4.40;4.00;;;12.40;30.00;;;;;;10344083;28;20233;-70
2024/03/11 22:43:46;;;;;;;6.70;3.87;;;12.40;30.20;;;;;;10339415;28;20230;-70
2024/03/11 22:48:49;;;;;;;4.13;3.10;;;12.30;30.60;;;;;;10347792;28;20225;-70
2024/03/11 22:54:01;;;;;;;2.50;2.23;;;12.30;29.90;;;;;;10381039;28;20222;-70
2024/03/11 22:59:06;;;;;;;1.97;1.77;;;12.40;30.00;;;;;;10383531;28;20225;-70
2024/03/11 23:04:09;;;;;;;2.07;1.97;;;12.40;30.00;;;;;;10377051;28;20299;-70
2024/03/11 23:09:15;;;;;;;2.10;1.80;;;12.50;30.00;;;;;;10383676;28;20952;-70
2024/03/11 23:14:20;;;;;;;2.00;1.80;;;12.60;30.00;;;;;;10383563;28;20230;-70
2024/03/11 23:19:25;;;;;;;3.47;2.30;;;12.70;30.10;;;;;;10383183;28;20240;-70
2024/03/11 23:24:28;;;;;;;2.10;1.90;;;12.70;29.80;;;;;;10386088;28;20228;-70
2024/03/11 23:29:33;;;;;;;2.53;2.07;;;12.80;29.80;;;;;;10379941;28;20230;-70
2024/03/11 23:34:36;;;;;;;2.10;2.00;;;12.70;29.90;;;;;;10379593;28;20233;-70
2024/03/11 23:39:39;;;;;;;3.00;2.80;;;12.70;30.00;;;;;;10387589;28;20225;-70
2024/03/11 23:44:44;;;;;;;2.97;2.53;;;12.70;30.10;;;;;;10377528;28;20222;-70
2024/03/11 23:49:47;;;;;;;2.80;2.60;;;12.60;30.00;;;;;;10382917;28;20237;-70
2024/03/11 23:54:50;;;;;;;2.80;2.50;;;12.60;30.00;;;;;;10384317;28;20924;-70
2024/03/11 23:59:55;;;;;;;3.73;2.80;;;12.60;30.00;;;;;;10384618;28;20225;-70
